Time;durP1;ratioP1;P1;durP2;ratioP2;P2;SDS_P1;SDS_P2;PMS_P1;PMS_P2;Temp;Humidity;BMP_temperature;BMP_pressure;BME280_temperature;BME280_humidity;BME280_pressure;Samples;Min_cycle;Max_cycle;Signal;HPM_P1;HPM_P2
2022/01/31 00:01:48;;;;;;;5.65;1.55;;;27.50;99.90;;;;;;5073629;28;20020;-72
2022/01/31 00:04:16;;;;;;;5.95;1.38;;;27.50;99.90;;;;;;5071940;28;20060;-72
2022/01/31 00:06:48;;;;;;;4.88;1.40;;;27.70;99.90;;;;;;5073539;28;20042;-72
2022/01/31 00:09:17;;;;;;;4.53;1.33;;;27.80;99.90;;;;;;5073615;28;20021;-73
2022/01/31 00:11:55;;;;;;;6.13;1.70;;;27.80;99.90;;;;;;5073390;28;20038;-73
2022/01/31 00:17:01;;;;;;;5.38;1.30;;;28.50;99.90;;;;;;5073394;28;20124;-74
2022/01/31 00:19:29;;;;;;;9.98;1.73;;;28.80;99.90;;;;;;5073253;28;20028;-73
2022/01/31 00:21:57;;;;;;;7.70;1.10;;;29.70;99.90;;;;;;5073276;28;20035;-72
2022/01/31 00:24:24;;;;;;;5.72;0.98;;;30.60;99.90;;;;;;5071810;28;20025;-72
2022/01/31 00:26:53;;;;;;;7.15;1.45;;;31.00;99.90;;;;;;5073168;28;20107;-73
2022/01/31 00:29:20;;;;;;;4.88;1.25;;;31.20;99.90;;;;;;5073125;28;20066;-73
2022/01/31 00:31:47;;;;;;;4.72;1.48;;;30.90;99.90;;;;;;5071835;28;20024;-74
2022/01/31 00:34:15;;;;;;;5.95;1.20;;;30.40;99.90;;;;;;5072996;28;20103;-73
2022/01/31 00:36:42;;;;;;;4.85;1.65;;;30.20;99.90;;;;;;5073045;28;20154;-73
2022/01/31 00:39:09;;;;;;;3.80;1.20;;;29.80;99.90;;;;;;5072778;28;20128;-72
2022/01/31 00:41:37;;;;;;;6.10;1.40;;;29.60;99.90;;;;;;5073170;28;20056;-72
2022/01/31 00:44:21;;;;;;;4.55;1.38;;;29.70;99.90;;;;;;5072901;28;20101;-73
2022/01/31 00:46:55;;;;;;;6.25;1.20;;;29.70;99.90;;;;;;5071659;28;20492;-72
2022/01/31 00:49:34;;;;;;;3.45;1.10;;;29.50;99.90;;;;;;5072888;28;20556;-73
2022/01/31 00:52:03;;;;;;;4.35;0.98;;;29.80;99.90;;;;;;5072998;28;20465;-73
2022/01/31 00:54:31;;;;;;;4.47;1.40;;;30.10;99.90;;;;;;5072778;28;20493;-72
2022/01/31 00:56:58;;;;;;;4.03;0.90;;;29.70;99.90;;;;;;5072836;28;20025;-72
2022/01/31 00:59:26;;;;;;;5.28;1.05;;;29.50;99.90;;;;;;5072820;28;20408;-72
2022/01/31 01:01:53;;;;;;;6.82;1.20;;;29.80;99.90;;;;;;5071548;28;20390;-73
2022/01/31 01:04:20;;;;;;;4.40;0.98;;;30.60;99.90;;;;;;5072388;28;20041;-73
2022/01/31 01:06:48;;;;;;;5.95;1.30;;;30.90;99.90;;;;;;5071443;28;20069;-73
2022/01/31 01:09:15;;;;;;;6.10;1.27;;;31.30;99.90;;;;;;5071330;28;20071;-73
2022/01/31 01:11:43;;;;;;;3.33;0.90;;;31.60;99.90;;;;;;5072664;28;20055;-73
2022/01/31 01:14:10;;;;;;;3.03;0.68;;;31.70;99.90;;;;;;5072541;28;20017;-74
2022/01/31 01:16:38;;;;;;;3.90;0.75;;;31.70;99.90;;;;;;5072680;28;20530;-74
2022/01/31 01:19:05;;;;;;;2.50;0.70;;;31.70;99.90;;;;;;5072575;28;20020;-74
2022/01/31 01:21:33;;;;;;;2.60;0.88;;;31.70;99.90;;;;;;5071388;28;20024;-74
2022/01/31 01:24:00;;;;;;;5.78;0.90;;;31.70;99.90;;;;;;5072487;28;20029;-74
2022/01/31 01:26:27;;;;;;;2.08;0.73;;;31.70;99.90;;;;;;5072602;28;20025;-74
2022/01/31 01:28:55;;;;;;;2.88;0.63;;;31.30;99.90;;;;;;5072505;28;20076;-74
2022/01/31 01:31:22;;;;;;;2.55;0.73;;;31.50;99.90;;;;;;5072523;28;20388;-74
2022/01/31 01:33:52;;;;;;;3.13;1.00;;;31.40;99.90;;;;;;5071246;28;20142;-74
2022/01/31 01:36:20;;;;;;;5.22;1.00;;;31.50;99.90;;;;;;5071194;28;20027;-72
2022/01/31 01:38:48;;;;;;;3.92;1.02;;;31.50;99.90;;;;;;5071109;28;20401;-74
2022/01/31 01:41:15;;;;;;;4.38;0.77;;;31.40;99.90;;;;;;5072317;28;20052;-74
2022/01/31 01:43:43;;;;;;;2.83;0.65;;;31.50;99.90;;;;;;5072281;28;20417;-74
2022/01/31 01:46:10;;;;;;;3.65;0.70;;;31.50;99.90;;;;;;5070883;28;20024;-74
2022/01/31 01:48:38;;;;;;;6.82;1.63;;;31.40;99.90;;;;;;5072276;28;20066;-73
2022/01/31 01:51:05;;;;;;;3.75;0.80;;;31.40;99.90;;;;;;5072669;28;20024;-74
2022/01/31 01:53:33;;;;;;;3.83;0.90;;;31.30;99.90;;;;;;5074833;28;20020;-74
2022/01/31 01:56:01;;;;;;;4.05;0.80;;;31.30;99.90;;;;;;5075924;28;20030;-75
2022/01/31 01:58:37;;;;;;;4.00;1.10;;;31.40;99.90;;;;;;5076063;28;20032;-74
2022/01/31 02:01:06;;;;;;;3.40;0.68;;;31.10;99.90;;;;;;5074678;28;20111;-74
2022/01/31 02:03:36;;;;;;;3.38;1.00;;;31.00;99.90;;;;;;5075901;28;20450;-74
2022/01/31 02:06:05;;;;;;;4.05;1.00;;;31.20;99.90;;;;;;5075588;28;20497;-74
2022/01/31 02:08:41;;;;;;;2.90;0.60;;;31.30;99.90;;;;;;5075960;28;20017;-74
2022/01/31 02:11:11;;;;;;;3.67;1.00;;;31.40;99.90;;;;;;5074417;28;20115;-74
2022/01/31 02:13:39;;;;;;;3.47;1.05;;;31.20;99.90;;;;;;5074452;28;20021;-75
2022/01/31 02:16:08;;;;;;;3.90;0.82;;;31.40;99.90;;;;;;5075619;28;20040;-75
2022/01/31 02:18:41;;;;;;;4.38;1.08;;;31.70;99.90;;;;;;5075746;28;20103;-74
2022/01/31 02:21:09;;;;;;;3.67;0.75;;;31.70;99.90;;;;;;5074276;28;20028;-75
2022/01/31 02:23:36;;;;;;;3.13;0.90;;;31.90;99.90;;;;;;5075620;28;20031;-75
2022/01/31 02:26:06;;;;;;;5.38;1.13;;;32.10;99.90;;;;;;5075316;28;20029;-75
2022/01/31 02:28:34;;;;;;;;;;;31.90;99.90;;;;;;5075942;28;20550;-74
2022/01/31 02:31:03;;;;;;;3.22;0.68;;;32.00;99.90;;;;;;5075401;28;19913;-75
2022/01/31 02:33:31;;;;;;;3.95;1.17;;;31.80;99.90;;;;;;5075527;28;20024;-75
2022/01/31 02:36:00;;;;;;;3.25;0.90;;;31.90;99.90;;;;;;5075290;28;20389;-73
2022/01/31 02:38:28;;;;;;;3.83;0.80;;;31.90;99.90;;;;;;5074174;28;20028;-74
2022/01/31 02:40:56;;;;;;;2.67;0.70;;;31.80;99.90;;;;;;5075110;28;20261;-74
2022/01/31 02:43:29;;;;;;;3.97;0.68;;;31.50;99.90;;;;;;5075108;28;20025;-74
2022/01/31 02:45:58;;;;;;;7.00;1.05;;;31.50;99.90;;;;;;5075070;28;20028;-74
2022/01/31 02:48:28;;;;;;;7.18;1.30;;;31.70;99.90;;;;;;5075255;28;20600;-74
2022/01/31 02:50:56;;;;;;;2.50;0.60;;;31.80;99.90;;;;;;5075037;28;20013;-75
2022/01/31 02:55:52;;;;;;;4.07;0.70;;;31.80;99.90;;;;;;5075079;28;20116;-76
2022/01/31 02:58:20;;;;;;;3.00;0.77;;;31.70;99.90;;;;;;5074876;28;20030;-74
2022/01/31 03:00:48;;;;;;;3.70;0.95;;;31.70;99.90;;;;;;5073548;28;20111;-74
2022/01/31 03:03:15;;;;;;;2.70;1.08;;;31.50;99.90;;;;;;5073379;28;20028;-73
2022/01/31 03:05:46;;;;;;;3.80;0.80;;;31.30;99.90;;;;;;5075005;28;20036;-74
2022/01/31 03:08:14;;;;;;;3.67;1.10;;;31.70;99.90;;;;;;5074711;28;20104;-74
2022/01/31 03:10:41;;;;;;;3.83;0.70;;;31.30;99.90;;;;;;5074687;28;20058;-74
2022/01/31 03:13:08;;;;;;;2.25;0.73;;;31.30;99.90;;;;;;5074653;28;20380;-74
2022/01/31 03:15:36;;;;;;;2.70;0.77;;;31.20;99.90;;;;;;5073337;28;20111;-74
2022/01/31 03:18:05;;;;;;;2.28;0.77;;;31.20;99.90;;;;;;5074509;28;20025;-74
2022/01/31 03:20:33;;;;;;;2.70;0.80;;;31.20;99.90;;;;;;5073186;28;20107;-74
2022/01/31 03:23:01;;;;;;;2.85;0.68;;;31.00;99.90;;;;;;5074355;28;20082;-75
2022/01/31 03:25:28;;;;;;;4.35;0.70;;;31.10;99.90;;;;;;5074333;28;20021;-75
2022/01/31 03:27:56;;;;;;;3.25;0.57;;;31.40;99.90;;;;;;5074249;28;20016;-75
2022/01/31 03:30:24;;;;;;;4.28;0.80;;;31.40;99.90;;;;;;5074390;28;20052;-75
2022/01/31 03:32:51;;;;;;;4.10;0.88;;;31.10;99.90;;;;;;5074551;28;20066;-75
2022/01/31 03:35:20;;;;;;;3.65;0.88;;;31.60;99.90;;;;;;5074204;28;20363;-75
2022/01/31 03:37:48;;;;;;;1.60;0.57;;;31.70;99.90;;;;;;5072758;28;20522;-75
2022/01/31 03:40:15;;;;;;;2.58;0.68;;;31.80;99.90;;;;;;5074292;28;20389;-75
2022/01/31 03:42:42;;;;;;;2.22;0.75;;;31.90;99.90;;;;;;5073982;28;20025;-74
2022/01/31 03:45:12;;;;;;;3.03;0.80;;;31.80;99.90;;;;;;5074076;28;20017;-76
2022/01/31 03:47:44;;;;;;;;;;;31.80;99.90;;;;;;5074251;28;20107;-76
2022/01/31 03:50:17;;;;;;;2.75;0.50;;;31.90;99.90;;;;;;5073937;28;19990;-75
2022/01/31 03:52:45;;;;;;;2.13;0.60;;;32.00;99.90;;;;;;5073745;28;20089;-76
2022/01/31 03:55:14;;;;;;;2.30;0.63;;;32.20;99.90;;;;;;5072495;28;20155;-76
2022/01/31 03:57:41;;;;;;;2.88;0.68;;;32.40;99.90;;;;;;5072445;28;20052;-76
2022/01/31 04:00:11;;;;;;;3.17;0.90;;;32.20;99.90;;;;;;5073673;28;20031;-76
2022/01/31 04:02:39;;;;;;;3.80;0.90;;;32.20;99.90;;;;;;5073582;28;20047;-76
2022/01/31 04:05:07;;;;;;;2.90;0.70;;;32.10;99.90;;;;;;5073309;28;20040;-75
2022/01/31 04:07:34;;;;;;;2.13;0.63;;;31.60;99.90;;;;;;5072235;28;20457;-75
2022/01/31 04:10:03;;;;;;;1.80;0.70;;;31.80;99.90;;;;;;5073492;28;20021;-75
2022/01/31 04:12:31;;;;;;;2.47;0.50;;;31.80;99.90;;;;;;5073551;28;20017;-75
2022/01/31 04:14:58;;;;;;;3.58;0.70;;;32.10;99.90;;;;;;5071560;28;20027;-75
2022/01/31 04:17:26;;;;;;;2.97;0.70;;;32.00;99.90;;;;;;5072086;28;20024;-77
2022/01/31 04:19:53;;;;;;;2.38;0.60;;;32.00;99.90;;;;;;5073313;28;20051;-76
2022/01/31 04:22:23;;;;;;;2.40;0.60;;;31.60;99.90;;;;;;5073316;28;20583;-77
2022/01/31 04:24:55;;;;;;;2.38;0.60;;;31.90;99.90;;;;;;5071750;28;20028;-76
2022/01/31 04:27:27;;;;;;;3.90;0.73;;;32.00;99.90;;;;;;5071958;28;20020;-75
2022/01/31 04:29:54;;;;;;;2.13;0.50;;;31.90;99.90;;;;;;5073143;28;20066;-75
2022/01/31 04:32:22;;;;;;;1.25;0.40;;;32.00;99.90;;;;;;5073129;28;20016;-76
2022/01/31 04:34:49;;;;;;;3.88;0.70;;;32.20;99.90;;;;;;5073067;28;20025;-77
2022/01/31 04:37:17;;;;;;;2.60;0.70;;;32.20;99.90;;;;;;5071789;28;20230;-76
2022/01/31 04:39:44;;;;;;;1.73;0.47;;;32.20;99.90;;;;;;5071636;28;20024;-75
2022/01/31 04:42:12;;;;;;;2.10;0.52;;;32.20;99.90;;;;;;5071753;28;20031;-75
2022/01/31 04:44:39;;;;;;;3.13;0.63;;;31.80;99.90;;;;;;5072808;28;20423;-75
2022/01/31 04:47:06;;;;;;;1.88;0.60;;;31.60;99.90;;;;;;5073029;28;20100;-75
2022/01/31 04:49:35;;;;;;;4.00;0.80;;;31.70;99.90;;;;;;5073028;28;20028;-75
2022/01/31 04:52:03;;;;;;;2.15;0.60;;;31.80;99.90;;;;;;5071632;28;20390;-75
2022/01/31 04:54:30;;;;;;;1.42;0.40;;;32.20;99.90;;;;;;5071557;28;20020;-75
2022/01/31 04:56:57;;;;;;;2.03;0.40;;;32.00;99.90;;;;;;5072965;28;20033;-75
2022/01/31 04:59:25;;;;;;;1.90;0.50;;;32.20;99.90;;;;;;5071395;28;20389;-74
2022/01/31 05:01:52;;;;;;;1.63;0.47;;;32.20;99.90;;;;;;5072856;28;20431;-74
2022/01/31 05:04:19;;;;;;;3.35;0.77;;;32.00;99.90;;;;;;5071042;28;20085;-74
2022/01/31 05:06:48;;;;;;;1.42;0.40;;;31.80;99.90;;;;;;5072762;28;20025;-74
2022/01/31 05:09:16;;;;;;;2.67;0.60;;;31.90;99.90;;;;;;5072840;28;20024;-74
2022/01/31 05:11:43;;;;;;;2.55;0.80;;;31.70;99.90;;;;;;5072786;28;20032;-74
2022/01/31 05:14:11;;;;;;;4.15;0.88;;;31.70;99.90;;;;;;5072664;28;20017;-73
2022/01/31 05:16:38;;;;;;;3.15;0.65;;;31.80;99.90;;;;;;5071252;28;20029;-73
2022/01/31 05:19:05;;;;;;;2.55;0.60;;;31.60;99.90;;;;;;5072631;28;20020;-74
2022/01/31 05:21:33;;;;;;;3.95;0.70;;;31.60;99.90;;;;;;5072530;28;20013;-73
2022/01/31 05:24:00;;;;;;;1.95;0.57;;;31.40;99.90;;;;;;5072543;28;20033;-73
2022/01/31 05:26:27;;;;;;;2.33;0.50;;;31.50;99.90;;;;;;5073569;28;20089;-74
2022/01/31 05:28:55;;;;;;;2.55;0.63;;;31.60;99.90;;;;;;5075242;28;20489;-73
2022/01/31 05:31:22;;;;;;;2.75;0.65;;;31.60;99.90;;;;;;5075180;28;20021;-74
2022/01/31 05:33:49;;;;;;;2.92;0.70;;;31.10;99.90;;;;;;5076488;28;20017;-73
2022/01/31 05:36:17;;;;;;;2.80;0.60;;;31.00;99.90;;;;;;5075076;28;20032;-74
2022/01/31 05:38:45;;;;;;;2.63;0.75;;;31.10;99.90;;;;;;5076409;28;20024;-74
2022/01/31 05:41:18;;;;;;;3.10;0.60;;;31.00;99.90;;;;;;5076200;28;20051;-74
2022/01/31 05:43:47;;;;;;;3.20;0.73;;;31.10;99.90;;;;;;5076327;28;20078;-74
2022/01/31 05:46:14;;;;;;;2.15;0.82;;;31.00;99.90;;;;;;5076050;28;20545;-74
2022/01/31 05:48:42;;;;;;;2.15;0.50;;;31.20;99.90;;;;;;5076200;28;20016;-74
2022/01/31 05:51:25;;;;;;;1.83;0.50;;;31.50;99.90;;;;;;5074696;28;20043;-74
2022/01/31 05:53:52;;;;;;;2.80;0.65;;;31.60;99.90;;;;;;5076010;28;20021;-75
2022/01/31 05:56:20;;;;;;;2.55;0.50;;;31.50;99.90;;;;;;5075925;28;20030;-74
2022/01/31 05:58:49;;;;;;;3.60;0.70;;;31.60;99.90;;;;;;5075948;28;20033;-75
2022/01/31 06:01:17;;;;;;;1.60;0.40;;;31.70;99.90;;;;;;5075793;28;20025;-74
2022/01/31 06:03:44;;;;;;;1.95;0.40;;;31.80;99.90;;;;;;5075958;28;20069;-73
2022/01/31 06:06:12;;;;;;;1.60;0.52;;;31.50;99.90;;;;;;5074030;28;20109;-75
2022/01/31 06:08:39;;;;;;;1.30;0.50;;;31.20;99.90;;;;;;5075368;28;20389;-74
2022/01/31 06:11:07;;;;;;;1.90;0.40;;;31.30;99.90;;;;;;5073896;28;20024;-74
2022/01/31 06:13:34;;;;;;;2.33;0.77;;;31.30;99.90;;;;;;5075388;28;20055;-74
2022/01/31 06:16:02;;;;;;;0.98;0.30;;;31.40;99.90;;;;;;5075312;28;20025;-74
2022/01/31 06:18:29;;;;;;;2.13;0.52;;;31.50;99.90;;;;;;5075406;28;20025;-74
2022/01/31 06:20:57;;;;;;;1.08;0.50;;;31.60;99.90;;;;;;5075374;28;20071;-74
2022/01/31 06:23:24;;;;;;;0.90;0.43;;;31.60;99.90;;;;;;5075442;28;20025;-74
2022/01/31 06:25:51;;;;;;;3.08;0.52;;;31.30;99.90;;;;;;5075427;28;20024;-74
2022/01/31 06:28:20;;;;;;;1.60;0.30;;;31.50;99.90;;;;;;5074052;28;20115;-75
2022/01/31 06:30:47;;;;;;;1.77;0.52;;;31.70;99.90;;;;;;5075385;28;20477;-76
2022/01/31 06:33:16;;;;;;;2.55;0.63;;;31.90;99.90;;;;;;5075500;28;20450;-77
2022/01/31 06:35:44;;;;;;;1.13;0.40;;;31.50;99.90;;;;;;5075597;28;20054;-77
2022/01/31 06:38:12;;;;;;;1.08;0.43;;;30.90;99.90;;;;;;5073475;28;20520;-75
2022/01/31 06:40:39;;;;;;;2.30;0.70;;;30.40;99.90;;;;;;5073924;28;20028;-74
2022/01/31 06:43:07;;;;;;;1.73;0.50;;;30.80;99.90;;;;;;5075054;28;20029;-74
2022/01/31 06:45:34;;;;;;;1.15;0.30;;;31.30;99.90;;;;;;5075020;28;20028;-76
2022/01/31 06:48:02;;;;;;;0.98;0.40;;;32.00;99.90;;;;;;5075040;28;20021;-74
2022/01/31 06:50:29;;;;;;;1.88;0.40;;;31.80;99.90;;;;;;5075040;28;20108;-74
2022/01/31 06:52:57;;;;;;;1.40;0.47;;;31.70;99.90;;;;;;5073636;28;20029;-74
2022/01/31 06:55:25;;;;;;;2.13;0.50;;;31.90;99.90;;;;;;5073708;28;20028;-74
2022/01/31 06:57:53;;;;;;;1.27;0.50;;;31.70;99.90;;;;;;5074863;28;20043;-75
2022/01/31 07:00:21;;;;;;;1.77;0.40;;;31.40;99.90;;;;;;5074915;28;20024;-75
2022/01/31 07:02:50;;;;;;;0.82;0.30;;;31.20;99.90;;;;;;5073384;28;20120;-75
2022/01/31 07:05:18;;;;;;;1.40;0.40;;;30.80;99.90;;;;;;5073074;28;20121;-75
2022/01/31 07:07:46;;;;;;;0.70;0.50;;;31.00;99.90;;;;;;5074938;28;20097;-74
2022/01/31 07:10:14;;;;;;;1.55;0.70;;;31.10;99.90;;;;;;5073183;28;20024;-75
2022/01/31 07:12:48;;;;;;;1.73;0.82;;;31.30;99.90;;;;;;5074313;28;20021;-74
2022/01/31 07:15:16;;;;;;;2.58;0.50;;;31.50;99.90;;;;;;5074528;28;20025;-74
2022/01/31 07:17:46;;;;;;;1.40;0.50;;;31.50;99.90;;;;;;5074405;28;20055;-76
2022/01/31 07:20:28;;;;;;;1.77;0.57;;;31.80;99.90;;;;;;5074549;28;20016;-76
2022/01/31 07:23:01;;;;;;;1.27;0.60;;;31.50;99.90;;;;;;5074452;28;20052;-77
2022/01/31 07:25:37;;;;;;;1.67;0.50;;;31.60;99.90;;;;;;5073212;28;20479;-77
2022/01/31 07:28:16;;;;;;;1.33;0.50;;;31.40;99.90;;;;;;5073155;28;20365;-77
2022/01/31 07:30:49;;;;;;;2.58;0.57;;;31.30;99.90;;;;;;5074421;28;20047;-76
2022/01/31 07:33:17;;;;;;;2.25;0.50;;;31.30;99.90;;;;;;5072951;28;20051;-77
2022/01/31 07:35:48;;;;;;;1.67;0.45;;;30.90;99.90;;;;;;5072843;28;20031;-76
2022/01/31 07:38:16;;;;;;;1.65;0.70;;;30.70;99.90;;;;;;5074146;28;20021;-76
2022/01/31 07:40:44;;;;;;;1.67;0.50;;;30.10;99.90;;;;;;5074138;28;20450;-77
2022/01/31 07:43:11;;;;;;;2.10;0.70;;;29.50;99.90;;;;;;5072666;28;20020;-75
2022/01/31 07:45:39;;;;;;;1.83;0.60;;;29.00;99.90;;;;;;5073873;28;20021;-76
2022/01/31 07:48:06;;;;;;;1.55;0.73;;;28.70;99.90;;;;;;5073831;28;20420;-76
2022/01/31 07:50:36;;;;;;;3.05;0.77;;;28.20;99.90;;;;;;5073229;28;20020;-76
2022/01/31 07:53:04;;;;;;;1.27;0.50;;;27.80;99.90;;;;;;5073879;28;20025;-75
2022/01/31 07:55:33;;;;;;;1.38;0.40;;;27.70;99.90;;;;;;5072373;28;20111;-75
2022/01/31 07:58:00;;;;;;;2.22;0.70;;;27.30;99.90;;;;;;5073723;28;20028;-75
2022/01/31 08:00:29;;;;;;;3.95;0.70;;;27.20;99.90;;;;;;5072236;28;20063;-75
2022/01/31 08:02:57;;;;;;;3.50;0.90;;;27.00;99.90;;;;;;5073621;28;20059;-75
2022/01/31 08:05:24;;;;;;;2.65;0.90;;;27.00;99.90;;;;;;5073191;28;20464;-76
2022/01/31 08:07:51;;;;;;;3.10;0.85;;;26.80;99.90;;;;;;5073565;28;20047;-75
2022/01/31 08:10:19;;;;;;;2.88;0.70;;;26.80;99.90;;;;;;5073379;28;20016;-75
2022/01/31 08:12:46;;;;;;;2.03;0.85;;;26.70;99.90;;;;;;5073419;28;20082;-75
2022/01/31 08:15:22;;;;;;;3.30;0.85;;;26.60;99.90;;;;;;5073351;28;20031;-75
2022/01/31 08:17:49;;;;;;;2.28;0.75;;;26.60;99.90;;;;;;5072076;28;20032;-75
2022/01/31 08:20:17;;;;;;;2.30;0.68;;;26.50;99.90;;;;;;5073264;28;20089;-75
2022/01/31 08:22:44;;;;;;;2.80;0.80;;;26.30;99.90;;;;;;5071918;28;20450;-75
2022/01/31 08:25:14;;;;;;;3.53;1.38;;;26.30;99.90;;;;;;5073084;28;20068;-75
2022/01/31 08:27:46;;;;;;;2.92;1.17;;;26.30;99.90;;;;;;5073109;28;20592;-75
2022/01/31 08:30:18;;;;;;;3.78;0.82;;;26.20;99.90;;;;;;5073181;28;20055;-74
2022/01/31 08:32:58;;;;;;;2.55;0.85;;;26.10;99.90;;;;;;5071787;28;20073;-76
2022/01/31 08:38:11;;;;;;;3.22;0.88;;;26.00;99.90;;;;;;5073400;28;20064;-76
2022/01/31 08:40:39;;;;;;;3.08;0.90;;;25.90;99.90;;;;;;5072925;28;20370;-75
2022/01/31 08:43:07;;;;;;;4.05;0.90;;;25.80;99.90;;;;;;5072992;28;20020;-75
2022/01/31 08:45:37;;;;;;;2.35;0.75;;;25.70;99.90;;;;;;5071558;28;20039;-75
2022/01/31 08:48:04;;;;;;;;;;;25.80;99.90;;;;;;5073368;28;20025;-75
2022/01/31 08:50:31;;;;;;;3.50;1.10;;;25.80;99.90;;;;;;5071479;28;20375;-75
2022/01/31 08:52:59;;;;;;;3.40;0.80;;;25.70;99.90;;;;;;5072854;28;20051;-75
2022/01/31 08:55:26;;;;;;;3.22;1.10;;;25.70;99.90;;;;;;5072671;28;20051;-75
2022/01/31 08:57:56;;;;;;;2.35;1.02;;;25.70;99.90;;;;;;5072862;28;20489;-74
2022/01/31 09:00:34;;;;;;;4.38;1.00;;;25.70;99.90;;;;;;5072629;28;20418;-75
2022/01/31 09:03:35;;;;;;;2.35;0.98;;;25.70;99.90;;;;;;5072772;28;20032;-75
2022/01/31 09:05:52;;;;;;;2.80;1.13;;;25.80;99.90;;;;;;5072118;28;20068;-75
2022/01/31 09:08:19;;;;;;;2.80;1.00;;;25.70;99.90;;;;;;5071370;28;20110;-75
2022/01/31 09:10:47;;;;;;;3.72;1.20;;;25.70;99.90;;;;;;5071384;28;20025;-75
2022/01/31 09:13:17;;;;;;;3.88;1.02;;;25.60;99.90;;;;;;5072423;28;20017;-75
2022/01/31 09:15:44;;;;;;;1.80;0.70;;;25.60;99.90;;;;;;5072440;28;20069;-75
2022/01/31 09:18:11;;;;;;;3.35;0.77;;;25.50;99.90;;;;;;5071088;28;20463;-75
2022/01/31 09:20:39;;;;;;;2.83;0.80;;;25.40;99.90;;;;;;5072327;28;20052;-75
2022/01/31 09:23:06;;;;;;;4.03;0.85;;;25.40;99.90;;;;;;5072347;28;20479;-75
2022/01/31 09:25:35;;;;;;;3.28;0.90;;;25.40;99.90;;;;;;5072149;28;20481;-74
2022/01/31 09:28:03;;;;;;;4.07;0.90;;;25.30;99.90;;;;;;5072130;28;20025;-74
2022/01/31 09:30:31;;;;;;;3.50;0.70;;;25.30;99.90;;;;;;5072467;28;20024;-75
2022/01/31 09:33:16;;;;;;;3.45;0.73;;;25.40;99.90;;;;;;5072316;28;20481;-74
2022/01/31 09:35:43;;;;;;;2.70;0.63;;;25.30;99.90;;;;;;5072475;28;20477;-74
2022/01/31 09:38:17;;;;;;;2.70;0.70;;;25.30;99.90;;;;;;5072524;28;20389;-75
2022/01/31 09:40:44;;;;;;;2.60;0.70;;;25.20;99.90;;;;;;5072503;28;20405;-75
2022/01/31 09:51:05;;;;;;;4.03;1.33;;;25.10;99.90;;;;;;5072451;28;20440;-76
2022/01/31 09:53:37;;;;;;;4.68;0.90;;;25.20;99.90;;;;;;5072347;28;20489;-75
2022/01/31 09:56:07;;;;;;;3.45;1.00;;;25.10;99.90;;;;;;5072421;28;20508;-76
2022/01/31 09:58:34;;;;;;;3.55;0.85;;;25.10;99.90;;;;;;5072342;28;20074;-76
2022/01/31 10:01:05;;;;;;;2.42;0.88;;;25.00;99.90;;;;;;5072344;28;20082;-76
2022/01/31 10:03:32;;;;;;;3.22;0.77;;;25.10;99.90;;;;;;5072251;28;20054;-76
2022/01/31 10:06:17;;;;;;;3.05;0.70;;;25.00;99.90;;;;;;5070708;28;20048;-79
2022/01/31 10:08:45;;;;;;;2.72;0.60;;;25.00;99.90;;;;;;5072191;28;20028;-76
2022/01/31 10:11:29;;;;;;;2.67;1.00;;;25.00;99.90;;;;;;5072218;28;20012;-77
2022/01/31 10:17:17;;;;;;;1.48;0.82;;;24.90;99.90;;;;;;5075827;28;20082;-76
2022/01/31 10:20:21;;;;;;;3.13;0.70;;;24.90;99.90;;;;;;5075746;28;20086;-76
2022/01/31 10:22:48;;;;;;;3.90;1.05;;;24.90;99.90;;;;;;5075645;28;20398;-75
2022/01/31 10:25:33;;;;;;;3.78;0.80;;;24.90;99.90;;;;;;5075495;28;20021;-75
2022/01/31 10:28:01;;;;;;;2.58;0.90;;;24.80;99.90;;;;;;5074202;28;20369;-75
2022/01/31 10:33:18;;;;;;;2.97;0.70;;;24.80;99.90;;;;;;5075919;28;20516;-76
2022/01/31 10:35:46;;;;;;;2.90;0.70;;;24.80;99.90;;;;;;5075514;28;20389;-76
2022/01/31 10:38:18;;;;;;;1.83;0.80;;;24.80;99.90;;;;;;5075417;28;20021;-76
2022/01/31 10:52:01;;;;;;;5.25;1.08;;;24.70;99.90;;;;;;5075266;28;20027;-76
2022/01/31 10:57:07;;;;;;;3.33;1.10;;;24.70;99.90;;;;;;5075168;28;20016;-76
2022/01/31 10:59:35;;;;;;;3.22;1.10;;;24.70;99.90;;;;;;5075090;28;20013;-75
2022/01/31 11:02:06;;;;;;;5.57;0.98;;;24.70;99.90;;;;;;5073674;28;20459;-74
2022/01/31 11:04:35;;;;;;;2.70;0.93;;;24.70;99.90;;;;;;5074639;28;20064;-75
2022/01/31 11:07:06;;;;;;;3.67;0.65;;;24.70;99.90;;;;;;5074909;28;20027;-75
2022/01/31 11:09:34;;;;;;;2.25;0.70;;;24.70;99.90;;;;;;5074864;28;20020;-75
2022/01/31 11:12:04;;;;;;;2.13;0.60;;;24.80;99.90;;;;;;5073572;28;20016;-75
2022/01/31 11:17:35;;;;;;;2.30;0.70;;;24.80;99.90;;;;;;5074807;28;20079;-75
2022/01/31 11:20:06;;;;;;;3.00;0.63;;;24.80;99.90;;;;;;5074709;28;20049;-75
2022/01/31 11:25:22;;;;;;;2.30;0.82;;;24.80;99.90;;;;;;5074625;28;20031;-75
2022/01/31 11:27:51;;;;;;;2.55;0.65;;;24.70;99.90;;;;;;5074498;28;20024;-75
2022/01/31 11:30:19;;;;;;;1.73;0.77;;;24.80;99.90;;;;;;5074406;28;20017;-75
2022/01/31 11:35:32;;;;;;;1.08;0.47;;;24.70;99.90;;;;;;5074350;28;20126;-75
2022/01/31 11:37:59;;;;;;;2.97;0.60;;;24.60;99.90;;;;;;5073041;28;20173;-75
2022/01/31 11:40:27;;;;;;;2.30;0.60;;;24.60;99.90;;;;;;5074211;28;20020;-75
2022/01/31 11:45:44;;;;;;;1.48;0.50;;;24.50;99.90;;;;;;5074206;28;20039;-75
2022/01/31 11:48:26;;;;;;;3.63;0.80;;;24.50;99.90;;;;;;5074040;28;20090;-75
2022/01/31 11:51:00;;;;;;;2.58;0.90;;;24.50;99.90;;;;;;5073024;28;20067;-75
2022/01/31 11:53:36;;;;;;;2.83;0.68;;;24.40;99.90;;;;;;5072660;28;20035;-75
2022/01/31 11:56:07;;;;;;;1.27;0.40;;;24.40;99.90;;;;;;5073870;28;20036;-75
2022/01/31 11:58:45;;;;;;;3.40;0.80;;;24.40;99.90;;;;;;5072535;28;20028;-75
2022/01/31 12:04:00;;;;;;;1.90;0.60;;;24.40;99.90;;;;;;5073564;28;20405;-75
2022/01/31 12:06:29;;;;;;;1.83;0.70;;;24.40;99.90;;;;;;5072382;28;20034;-75
2022/01/31 12:09:17;;;;;;;1.50;0.70;;;24.40;99.90;;;;;;5073634;28;20052;-75
2022/01/31 12:12:10;;;;;;;3.55;0.75;;;24.40;99.90;;;;;;5072259;28;20016;-74
2022/01/31 12:15:16;;;;;;;3.63;0.90;;;24.30;99.90;;;;;;5073602;28;20465;-75
2022/01/31 12:18:18;;;;;;;1.75;0.73;;;24.30;99.90;;;;;;5073441;28;20021;-75
2022/01/31 12:23:47;;;;;;;2.05;0.70;;;24.20;99.90;;;;;;5073738;28;20047;-75
2022/01/31 12:26:32;;;;;;;1.83;0.80;;;24.10;99.90;;;;;;5073368;28;20073;-75
2022/01/31 12:29:12;;;;;;;3.92;0.82;;;24.10;99.90;;;;;;5073291;28;20021;-75
2022/01/31 12:31:58;;;;;;;2.45;0.50;;;24.10;99.90;;;;;;5072086;28;20025;-75
2022/01/31 12:34:28;;;;;;;1.52;0.80;;;24.00;99.90;;;;;;5073136;28;20021;-74
2022/01/31 12:37:04;;;;;;;1.98;0.88;;;24.00;99.90;;;;;;5073348;28;20377;-75
2022/01/31 12:39:36;;;;;;;2.58;1.02;;;24.00;99.90;;;;;;5073210;28;20091;-75
2022/01/31 12:42:51;;;;;;;0.70;0.50;;;24.00;99.90;;;;;;5071867;28;20024;-75
2022/01/31 12:45:31;;;;;;;1.27;0.90;;;23.90;99.90;;;;;;5073052;28;20021;-74
2022/01/31 12:50:43;;;;;;;5.85;0.93;;;23.80;99.90;;;;;;5073054;28;20027;-75
2022/01/31 12:56:25;;;;;;;3.22;0.82;;;23.80;99.90;;;;;;5073067;28;20021;-75
2022/01/31 12:59:02;;;;;;;2.13;1.13;;;23.70;99.90;;;;;;5073050;28;20021;-75
2022/01/31 13:01:39;;;;;;;1.48;0.60;;;23.70;99.90;;;;;;5071668;28;20066;-75
2022/01/31 13:04:16;;;;;;;2.83;0.68;;;23.70;99.90;;;;;;5072725;28;20031;-75
2022/01/31 13:06:54;;;;;;;2.50;0.88;;;23.70;99.90;;;;;;5071606;28;20437;-75
2022/01/31 13:09:31;;;;;;;2.47;0.80;;;23.70;99.90;;;;;;5072889;28;20406;-75
2022/01/31 13:12:05;;;;;;;3.38;0.95;;;23.80;99.90;;;;;;5071560;28;20021;-75
2022/01/31 13:14:36;;;;;;;3.40;0.93;;;23.80;99.90;;;;;;5072937;28;20065;-75
2022/01/31 13:17:15;;;;;;;2.00;0.63;;;23.90;99.90;;;;;;5072867;28;20020;-75
2022/01/31 13:19:48;;;;;;;2.25;0.70;;;23.90;99.90;;;;;;5071504;28;20111;-75
2022/01/31 13:22:28;;;;;;;2.25;0.75;;;24.00;99.90;;;;;;5071462;28;20055;-75
2022/01/31 13:24:58;;;;;;;3.37;0.80;;;24.00;99.90;;;;;;5071410;28;20035;-75
2022/01/31 13:27:41;;;;;;;3.03;0.80;;;24.00;99.90;;;;;;5072686;28;20238;-75
2022/01/31 13:30:23;;;;;;;1.98;0.95;;;24.00;99.90;;;;;;5071425;28;20043;-75
2022/01/31 13:32:52;;;;;;;3.35;1.02;;;23.90;99.90;;;;;;5072675;28;20020;-74
2022/01/31 13:35:25;;;;;;;2.05;0.68;;;23.90;99.90;;;;;;5072578;28;20363;-75
2022/01/31 13:38:20;;;;;;;2.75;0.90;;;23.80;99.90;;;;;;5072753;28;20104;-75
2022/01/31 13:40:52;;;;;;;3.20;1.20;;;23.80;99.90;;;;;;5072602;28;20047;-75
2022/01/31 13:43:29;;;;;;;3.33;1.08;;;23.70;99.90;;;;;;5072631;28;20029;-75
2022/01/31 13:48:50;;;;;;;2.55;0.90;;;23.70;99.90;;;;;;5075392;28;20024;-75
2022/01/31 13:51:34;;;;;;;1.80;0.82;;;23.60;99.90;;;;;;5076297;28;20031;-75
2022/01/31 13:54:08;;;;;;;4.13;0.85;;;23.60;99.90;;;;;;5076338;28;20021;-75
2022/01/31 13:56:37;;;;;;;4.28;0.98;;;23.60;99.90;;;;;;5076336;28;20470;-75
2022/01/31 13:59:11;;;;;;;1.83;0.80;;;23.50;99.90;;;;;;5076168;28;20017;-75
2022/01/31 14:01:38;;;;;;;3.85;1.20;;;23.50;99.90;;;;;;5076151;28;20027;-75
2022/01/31 14:04:06;;;;;;;2.38;1.02;;;23.50;99.90;;;;;;5075906;28;20444;-75
2022/01/31 14:09:20;;;;;;;2.35;1.00;;;23.40;99.90;;;;;;5076067;28;20043;-74